This is the latest recevied weather packets stored in our database for station/object LRBS. If no packets are shown the sender has not sent any weather packets the latest 10 day(s).
| Time | Temp. | Humidity | Pressure | Rain* | Wind** | Luminosity | Snow |
|---|---|---|---|---|---|---|---|
| 1778014994 | 15° C | 68% | 1014 hPa | - | - | - | - |
| 1778014096 | 15° C | 72% | 1014 hPa | - | - | - | - |
| 1778013194 | 15° C | 72% | 1014 hPa | - | - | - | - |
| 1778012325 | 17.22° C | 56% | 1014 hPa | - | - | - | - |
| 1778011395 | 17.22° C | 56% | 1014 hPa | - | - | - | - |
| 1778010494 | 16.11° C | 59% | 1014 hPa | - | - | - | - |
| 1778009594 | 16.11° C | 59% | 1014 hPa | - | - | - | - |
| 1778008694 | 17.22° C | 59% | 1014 hPa | - | - | - | - |
| 1778007794 | 17.22° C | 59% | 1014 hPa | - | - | - | - |
| 1778006895 | 17.22° C | 59% | 1014 hPa | - | - | - | - |
| 1778005994 | 17.22° C | 59% | 1014 hPa | - | - | - | - |
| 1778005095 | 20° C | 53% | 1013 hPa | - | - | - | - |
| 1778004194 | 20° C | 53% | 1013 hPa | - | - | - | - |
| 1778003291 | 21.11° C | 46% | 1013 hPa | - | - | - | - |
| 1778002394 | 21.11° C | 46% | 1013 hPa | - | - | - | - |
| 1778001494 | 21.11° C | 50% | 1013 hPa | - | - | - | - |
| 1778000595 | 21.11° C | 50% | 1013 hPa | - | - | - | - |
| 1777999694 | 22.22° C | 47% | 1013 hPa | - | - | - | - |
| 1777998794 | 22.22° C | 47% | 1013 hPa | - | - | - | - |
| 1777997895 | 22.78° C | 47% | 1013 hPa | - | - | - | - |
| 1777996995 | 22.78° C | 47% | 1013 hPa | - | - | - | - |
| 1777996095 | 22.78° C | 44% | 1013 hPa | - | - | - | - |
| 1777995194 | 22.78° C | 44% | 1013 hPa | - | - | - | - |
| 1777994302 | 23.89° C | 39% | 1014 hPa | - | - | - | - |
| 1777993395 | 23.89° C | 39% | 1014 hPa | - | - | - | - |
* Rain since midnight (hover to see other rain measurements)
** Current wind speed in m/s (hover to see current wind gust speed)